Time;durP1;ratioP1;P1;durP2;ratioP2;P2;SDS_P1;SDS_P2;PMS_P1;PMS_P2;Temp;Humidity;BMP_temperature;BMP_pressure;BME280_temperature;BME280_humidity;BME280_pressure;Samples;Min_cycle;Max_cycle;Signal;HPM_P1;HPM_P2
2021/06/22 00:00:52;;;;;;;23.85;20.37;;;16.00;81.30;;;;;;4343510;33;20060;-87
2021/06/22 00:03:23;;;;;;;25.98;22.35;;;16.00;81.40;;;;;;4356326;32;20036;-86
2021/06/22 00:05:52;;;;;;;24.15;21.45;;;16.00;81.40;;;;;;4354529;32;20040;-85
2021/06/22 00:08:23;;;;;;;29.08;21.40;;;16.00;81.50;;;;;;4361487;32;20101;-87
2021/06/22 00:11:28;;;;;;;;;;;;;;;;;;;;;
2021/06/22 00:14:09;;;;;;;28.98;21.73;;;15.90;81.40;;;;;;4372959;32;20417;-87
2021/06/22 00:16:45;;;;;;;26.42;21.12;;;15.90;81.50;;;;;;4373020;32;20054;-87
2021/06/22 00:19:13;;;;;;;26.40;22.30;;;15.90;81.50;;;;;;4372814;32;20059;-86
2021/06/22 00:21:45;;;;;;;27.65;19.33;;;15.90;81.60;;;;;;4372992;32;20047;-85
2021/06/22 00:24:14;;;;;;;25.83;21.85;;;15.90;81.70;;;;;;4373009;32;20046;-85
2021/06/22 00:26:47;;;;;;;26.50;21.58;;;15.90;81.70;;;;;;4373115;32;20036;-85
2021/06/22 00:29:20;;;;;;;30.73;22.55;;;15.90;81.80;;;;;;4397967;32;20068;-87
2021/06/22 00:31:47;;;;;;;25.70;21.48;;;16.00;81.90;;;;;;4403818;32;20401;-85
2021/06/22 00:34:17;;;;;;;24.42;21.10;;;15.90;81.90;;;;;;4406419;32;20031;-85
2021/06/22 00:36:44;;;;;;;30.35;22.65;;;15.90;82.00;;;;;;4404687;32;20039;-85
2021/06/22 00:39:12;;;;;;;27.58;22.10;;;15.90;82.00;;;;;;4416612;32;20034;-84
2021/06/22 00:41:39;;;;;;;28.58;23.58;;;15.90;82.10;;;;;;4423410;32;20027;-85
2021/06/22 00:44:08;;;;;;;27.55;21.50;;;15.90;82.20;;;;;;4422083;32;20080;-85
2021/06/22 00:46:36;;;;;;;29.30;21.98;;;15.90;82.10;;;;;;4421859;32;20062;-85
2021/06/22 00:49:05;;;;;;;28.10;23.48;;;15.90;82.20;;;;;;4422154;32;20057;-86
2021/06/22 00:51:34;;;;;;;30.73;23.38;;;15.90;82.30;;;;;;4423820;32;20133;-86
2021/06/22 00:54:01;;;;;;;25.42;22.30;;;15.90;82.30;;;;;;4422464;32;20030;-86
2021/06/22 00:56:33;;;;;;;27.80;23.05;;;15.90;82.30;;;;;;4421906;32;20077;-87
2021/06/22 00:59:12;;;;;;;;;;;;;;;;;;;;;
2021/06/22 01:01:51;;;;;;;32.47;23.95;;;15.90;82.40;;;;;;4422515;32;20047;-86
2021/06/22 01:04:22;;;;;;;29.23;23.77;;;15.90;82.40;;;;;;4423359;32;20030;-86
2021/06/22 01:06:50;;;;;;;23.85;20.33;;;15.90;82.50;;;;;;4419226;32;20019;-86
2021/06/22 01:09:17;;;;;;;28.05;22.80;;;15.90;82.50;;;;;;4419062;32;20027;-86
2021/06/22 01:11:44;;;;;;;27.87;24.90;;;15.90;82.50;;;;;;4407601;32;20365;-86
2021/06/22 01:14:12;;;;;;;32.90;24.80;;;15.90;82.50;;;;;;4407708;32;20110;-85
2021/06/22 01:16:44;;;;;;;28.38;21.73;;;15.90;82.50;;;;;;4418894;32;20087;-86
2021/06/22 01:19:14;;;;;;;25.95;23.20;;;15.90;82.50;;;;;;4419799;32;20067;-83
2021/06/22 01:21:49;;;;;;;26.77;22.30;;;15.90;82.50;;;;;;4418917;32;20076;-85
2021/06/22 01:24:37;;;;;;;27.00;23.12;;;15.90;82.50;;;;;;4417934;32;20031;-85
2021/06/22 01:27:05;;;;;;;41.00;22.87;;;15.90;82.60;;;;;;4408054;32;20476;-86
2021/06/22 01:29:32;;;;;;;28.80;23.65;;;15.90;82.60;;;;;;4429740;32;20037;-85
2021/06/22 01:32:11;;;;;;;;;;;;;;;;;;;;;
2021/06/22 01:34:45;;;;;;;27.02;24.12;;;15.90;82.50;;;;;;4424000;32;20026;-85
2021/06/22 01:37:20;;;;;;;25.55;21.25;;;15.90;82.60;;;;;;4422466;32;20091;-87
2021/06/22 01:40:13;;;;;;;28.92;21.20;;;15.90;82.60;;;;;;4416097;32;20061;-86
2021/06/22 01:42:53;;;;;;;32.05;23.12;;;15.90;82.60;;;;;;4407344;32;20031;-85
2021/06/22 01:45:34;;;;;;;28.30;21.75;;;15.90;82.60;;;;;;4418427;32;20058;-86
2021/06/22 01:48:22;;;;;;;28.25;21.90;;;15.90;82.70;;;;;;4406295;32;20064;-87
2021/06/22 01:51:05;;;;;;;;;;;;;;;;;;;;;
2021/06/22 01:53:45;;;;;;;;;;;;;;;;;;;;;
2021/06/22 01:56:36;;;;;;;32.65;22.67;;;15.90;82.70;;;;;;4407478;32;20038;-88
2021/06/22 01:59:46;;;;;;;31.37;24.17;;;15.90;82.70;;;;;;4394133;32;20566;-86
2021/06/22 02:02:47;;;;;;;;;;;;;;;;;;;;;
2021/06/22 02:05:39;;;;;;;23.60;20.98;;;15.90;82.70;;;;;;4358990;32;20488;-87
2021/06/22 02:08:06;;;;;;;25.35;21.12;;;15.80;82.70;;;;;;4359828;32;20055;-86
2021/06/22 02:10:48;;;;;;;27.35;21.37;;;15.80;82.70;;;;;;4360325;32;20109;-86
2021/06/22 02:13:27;;;;;;;;;;;;;;;;;;;;;
2021/06/22 02:16:10;;;;;;;22.58;19.77;;;15.70;82.60;;;;;;4359442;33;20036;-87
2021/06/22 02:18:49;;;;;;;25.88;20.30;;;15.70;82.60;;;;;;4359582;32;20043;-86
2021/06/22 02:21:32;;;;;;;25.70;20.55;;;15.70;82.70;;;;;;4359449;32;20114;-88
2021/06/22 02:24:13;;;;;;;;;;;;;;;;;;;;;
2021/06/22 02:27:06;;;;;;;20.45;17.87;;;15.60;82.70;;;;;;4374036;32;20052;-87
2021/06/22 02:29:37;;;;;;;22.57;19.10;;;15.70;82.60;;;;;;4374014;32;20035;-87
2021/06/22 02:32:07;;;;;;;22.77;18.67;;;15.60;82.60;;;;;;4374230;32;20073;-86
2021/06/22 02:34:39;;;;;;;23.25;19.00;;;15.60;82.60;;;;;;4373940;32;20073;-86
2021/06/22 02:37:39;;;;;;;25.98;19.65;;;15.60;82.60;;;;;;4370207;32;20166;-87
2021/06/22 02:40:38;;;;;;;23.77;18.85;;;15.60;82.60;;;;;;4372722;32;20460;-88
2021/06/22 02:43:10;;;;;;;24.15;18.92;;;15.60;82.60;;;;;;4388369;32;20043;-89
2021/06/22 02:45:47;;;;;;;21.87;19.40;;;15.60;82.70;;;;;;4417725;32;20079;-86
2021/06/22 02:48:32;;;;;;;25.12;19.62;;;15.50;82.70;;;;;;4416680;32;20076;-88
2021/06/22 02:51:02;;;;;;;24.75;19.08;;;15.50;82.70;;;;;;4418024;32;20062;-87
2021/06/22 02:53:39;;;;;;;26.65;21.52;;;15.50;82.70;;;;;;4417710;32;20043;-87
2021/06/22 02:56:18;;;;;;;;;;;;;;;;;;;;;
2021/06/22 02:59:08;;;;;;;32.20;22.25;;;15.40;82.60;;;;;;4397560;32;20092;-87
2021/06/22 03:01:42;;;;;;;29.40;22.40;;;15.40;82.70;;;;;;4404843;32;20121;-86
2021/06/22 03:04:19;;;;;;;;;;;;;;;;;;;;;
2021/06/22 03:06:55;;;;;;;29.25;20.70;;;15.40;82.70;;;;;;4422443;32;20064;-87
2021/06/22 03:09:37;;;;;;;36.40;22.52;;;15.40;82.60;;;;;;4431715;32;20032;-87
2021/06/22 03:12:08;;;;;;;34.10;23.05;;;15.40;82.70;;;;;;4432556;32;20026;-86
2021/06/22 03:14:45;;;;;;;35.95;23.33;;;15.40;82.60;;;;;;4422671;32;20046;-88
2021/06/22 03:17:23;;;;;;;;;;;;;;;;;;;;;
2021/06/22 03:19:56;;;;;;;36.10;21.75;;;15.30;82.50;;;;;;4421296;32;20057;-88
2021/06/22 03:22:36;;;;;;;36.83;23.38;;;15.30;82.40;;;;;;4431809;32;20337;-88
2021/06/22 03:25:11;;;;;;;46.15;24.08;;;15.20;82.40;;;;;;4422344;32;20088;-86
2021/06/22 03:27:44;;;;;;;31.62;21.62;;;15.20;82.40;;;;;;4434459;32;20094;-87
2021/06/22 03:30:19;;;;;;;32.03;23.20;;;15.20;82.50;;;;;;4432588;32;20054;-86
2021/06/22 03:32:56;;;;;;;30.42;22.13;;;15.20;82.40;;;;;;4419924;32;20030;-87
2021/06/22 03:35:30;;;;;;;36.33;22.20;;;15.20;82.40;;;;;;4419960;32;20035;-86
2021/06/22 03:38:21;;;;;;;30.05;21.20;;;15.10;82.40;;;;;;4403898;32;20026;-90
2021/06/22 03:41:08;;;;;;;33.33;22.27;;;15.10;82.40;;;;;;4414786;32;20049;-88
2021/06/22 03:43:57;;;;;;;36.40;21.02;;;15.10;82.30;;;;;;4406839;32;20095;-90
2021/06/22 03:46:24;;;;;;;32.15;21.65;;;15.00;82.30;;;;;;4417325;32;20149;-89
2021/06/22 03:48:53;;;;;;;32.78;21.55;;;15.00;82.30;;;;;;4417447;32;20041;-89
2021/06/22 03:51:21;;;;;;;32.97;21.27;;;15.00;82.30;;;;;;4418583;32;20094;-91
2021/06/22 03:53:48;;;;;;;29.63;19.25;;;14.90;82.20;;;;;;4417929;32;20035;-89
2021/06/22 03:56:36;;;;;;;;;;;;;;;;;;;;;
2021/06/22 03:59:03;;;;;;;28.20;19.83;;;14.90;82.00;;;;;;4406078;32;20339;-90
2021/06/22 04:01:45;;;;;;;29.08;19.92;;;14.90;82.00;;;;;;4417024;32;20467;-88
2021/06/22 04:04:14;;;;;;;25.67;19.85;;;14.90;82.00;;;;;;4414742;32;21458;-90
2021/06/22 04:06:43;;;;;;;26.35;18.92;;;14.80;82.00;;;;;;4416616;32;20376;-90
2021/06/22 04:09:23;;;;;;;;;;;;;;;;;;;;;
2021/06/22 04:11:56;;;;;;;25.15;19.33;;;14.80;81.80;;;;;;4405968;32;20039;-91
2021/06/22 04:14:32;;;;;;;28.90;19.80;;;14.80;81.80;;;;;;4418827;32;20053;-90
2021/06/22 04:16:59;;;;;;;26.73;19.15;;;14.80;81.80;;;;;;4420368;32;20026;-87
2021/06/22 04:19:36;;;;;;;27.10;18.92;;;14.70;81.80;;;;;;4419694;32;20035;-88
2021/06/22 04:22:04;;;;;;;27.75;19.12;;;14.70;81.70;;;;;;4421839;32;20232;-87
2021/06/22 04:24:34;;;;;;;24.80;19.15;;;14.70;81.70;;;;;;4419933;32;20108;-87
2021/06/22 04:27:04;;;;;;;28.00;19.75;;;14.60;81.70;;;;;;4420886;32;20030;-90
2021/06/22 04:29:34;;;;;;;25.33;18.77;;;14.60;81.70;;;;;;4431842;32;20035;-89
2021/06/22 04:32:02;;;;;;;26.48;19.02;;;14.60;81.80;;;;;;4422384;32;20030;-89
2021/06/22 04:34:29;;;;;;;28.48;19.05;;;14.50;81.80;;;;;;4424161;32;20428;-89
2021/06/22 04:36:57;;;;;;;23.12;18.15;;;14.50;81.90;;;;;;4422312;32;20380;-89
2021/06/22 04:39:35;;;;;;;28.20;19.48;;;14.50;81.80;;;;;;4409911;32;20131;-91
2021/06/22 04:42:19;;;;;;;;;;;;;;;;;;;;;
2021/06/22 04:44:48;;;;;;;21.65;18.62;;;14.40;82.00;;;;;;4408472;32;20035;-88
2021/06/22 04:47:18;;;;;;;24.67;19.00;;;14.40;82.00;;;;;;4407127;32;20034;-88
2021/06/22 04:49:46;;;;;;;25.30;18.67;;;14.40;82.00;;;;;;4407188;32;20081;-88
2021/06/22 04:52:26;;;;;;;;;;;;;;;;;;;;;
2021/06/22 04:55:00;;;;;;;25.98;18.42;;;14.40;81.80;;;;;;4408210;32;20057;-88
2021/06/22 04:57:29;;;;;;;21.35;17.08;;;14.40;81.70;;;;;;4407361;32;20034;-88
2021/06/22 04:59:57;;;;;;;24.08;17.83;;;14.40;81.70;;;;;;4406772;32;20027;-87
2021/06/22 05:02:24;;;;;;;20.48;16.90;;;14.30;81.60;;;;;;4406773;32;20112;-87
2021/06/22 05:04:51;;;;;;;22.08;17.05;;;14.30;81.50;;;;;;4416828;32;20035;-87
2021/06/22 05:07:26;;;;;;;21.60;17.05;;;14.20;81.60;;;;;;4421920;32;20034;-88
2021/06/22 05:09:53;;;;;;;20.35;15.85;;;14.20;81.60;;;;;;4422045;32;20064;-87
2021/06/22 05:12:24;;;;;;;27.30;17.80;;;14.20;81.60;;;;;;4422049;32;20034;-89
2021/06/22 05:14:51;;;;;;;23.20;16.23;;;14.20;81.50;;;;;;4421841;32;20499;-88
2021/06/22 05:17:29;;;;;;;24.92;17.80;;;14.20;81.60;;;;;;4422043;32;20061;-89
2021/06/22 05:19:59;;;;;;;20.70;16.50;;;14.10;81.70;;;;;;4423714;32;20026;-89
2021/06/22 05:22:28;;;;;;;22.13;17.12;;;14.10;81.80;;;;;;4423096;32;20022;-88
2021/06/22 05:24:55;;;;;;;22.10;16.80;;;14.10;81.80;;;;;;4423053;32;20075;-87
2021/06/22 05:27:28;;;;;;;23.90;17.02;;;14.10;81.70;;;;;;4421608;32;20030;-88
2021/06/22 05:29:55;;;;;;;18.25;15.02;;;14.10;81.70;;;;;;4418847;32;20042;-89
2021/06/22 05:32:31;;;;;;;18.40;15.30;;;14.10;81.60;;;;;;4418281;32;20118;-87
2021/06/22 05:35:19;;;;;;;21.08;15.18;;;14.00;81.70;;;;;;4417955;32;20080;-89
2021/06/22 05:38:17;;;;;;;20.25;14.40;;;14.00;81.80;;;;;;4379156;32;20035;-90
2021/06/22 05:40:49;;;;;;;18.65;14.50;;;14.10;81.90;;;;;;4378279;32;20042;-89
2021/06/22 05:43:21;;;;;;;17.77;15.07;;;14.00;81.80;;;;;;4377735;32;20035;-87
2021/06/22 05:45:53;;;;;;;22.40;14.45;;;14.00;81.80;;;;;;4378055;32;20468;-89
2021/06/22 05:48:31;;;;;;;19.52;13.98;;;14.00;81.70;;;;;;4377937;32;20043;-90
2021/06/22 05:51:06;;;;;;;17.50;12.95;;;14.00;81.80;;;;;;4390600;32;20097;-89
2021/06/22 05:54:05;;;;;;;;;;;;;;;;;;;;;
2021/06/22 05:56:55;;;;;;;17.83;13.70;;;14.00;81.90;;;;;;4418958;32;20042;-88
2021/06/22 05:59:24;;;;;;;20.92;13.35;;;14.00;81.80;;;;;;4423368;32;20030;-88
2021/06/22 06:01:54;;;;;;;25.67;14.13;;;14.00;81.80;;;;;;4421112;32;20080;-88
2021/06/22 06:04:39;;;;;;;19.73;12.27;;;14.00;81.80;;;;;;4419458;32;20088;-88
2021/06/22 06:07:30;;;;;;;;;;;;;;;;;;;;;
2021/06/22 06:10:25;;;;;;;19.42;11.77;;;14.00;81.90;;;;;;4422481;32;20038;-90
2021/06/22 06:13:16;;;;;;;22.35;11.95;;;13.90;81.80;;;;;;4364482;32;20059;-92
2021/06/22 06:15:53;;;;;;;;;;;;;;;;;;;;;
2021/06/22 06:18:39;;;;;;;23.85;12.32;;;13.90;81.90;;;;;;4362147;32;20102;-91
2021/06/22 06:21:23;;;;;;;19.40;12.07;;;13.90;82.00;;;;;;4363971;32;20362;-90
2021/06/22 06:24:02;;;;;;;18.35;12.18;;;13.90;81.90;;;;;;4363241;32;20084;-90
2021/06/22 06:27:35;;;;;;;;;;;;;;;;;;;;;
2021/06/22 06:30:02;;;;;;;17.35;10.75;;;13.90;81.90;;;;;;4301429;33;20049;-89
2021/06/22 06:32:36;;;;;;;14.15;10.52;;;13.90;81.90;;;;;;4347397;33;20036;-90
2021/06/22 06:38:50;;;;;;;;;;;;;;;;;;;;;
2021/06/22 06:41:48;;;;;;;;;;;;;;;;;;;;;
2021/06/22 06:44:34;;;;;;;17.90;10.20;;;13.90;81.70;;;;;;4283798;33;20046;-90
2021/06/22 06:47:42;;;;;;;19.73;10.43;;;13.90;81.70;;;;;;4241489;33;20041;-89
2021/06/22 06:50:40;;;;;;;;;;;;;;;;;;;;;
2021/06/22 06:53:33;;;;;;;;;;;;;;;;;;;;;
2021/06/22 07:09:11;;;;;;;;;;;;;;;;;;;;;
2021/06/22 07:33:53;;;;;;;;;;;;;;;;;;;;;
2021/06/22 08:06:27;;;;;;;;;;;;;;;;;;;;;
2021/06/22 08:09:35;;;;;;;13.75;7.45;;;13.90;81.20;;;;;;5220780;27;20026;-89
2021/06/22 08:12:59;;;;;;;;;;;;;;;;;;;;;
2021/06/22 08:17:01;;;;;;;10.05;5.45;;;13.90;80.90;;;;;;5136133;28;20438;-88
2021/06/22 08:20:39;;;;;;;8.43;5.45;;;13.90;80.20;;;;;;5116407;27;20058;-87
2021/06/22 08:23:47;;;;;;;9.65;5.90;;;13.90;79.80;;;;;;5054922;28;20389;-88
2021/06/22 08:37:16;;;;;;;12.07;4.85;;;13.90;80.00;;;;;;5363584;26;399361;-90
2021/06/22 08:39:53;;;;;;;9.07;4.72;;;13.80;79.00;;;;;;5356340;26;20094;-91
2021/06/22 08:42:25;;;;;;;13.82;4.50;;;13.80;79.00;;;;;;5334992;26;19992;-89
2021/06/22 08:44:53;;;;;;;8.60;4.70;;;13.80;78.80;;;;;;5333926;26;20017;-89
2021/06/22 08:47:23;;;;;;;10.90;5.03;;;13.70;79.10;;;;;;5334988;26;20372;-88
2021/06/22 08:49:52;;;;;;;8.63;4.22;;;13.80;79.40;;;;;;5335594;26;20020;-87
2021/06/22 08:53:01;;;;;;;10.95;5.18;;;13.80;79.50;;;;;;5334193;26;20020;-89
2021/06/22 08:55:43;;;;;;;14.93;5.47;;;13.80;79.00;;;;;;5199776;27;20384;-87
2021/06/22 08:58:21;;;;;;;9.48;5.40;;;13.80;79.30;;;;;;5183595;27;20011;-90
2021/06/22 09:00:50;;;;;;;16.33;4.93;;;13.80;79.40;;;;;;5182034;27;20023;-89
2021/06/22 09:03:26;;;;;;;10.40;5.70;;;13.80;79.30;;;;;;5182987;27;20006;-89
2021/06/22 09:05:59;;;;;;;10.85;5.68;;;13.80;79.30;;;;;;5181663;27;20019;-89
2021/06/22 09:08:56;;;;;;;13.68;6.35;;;13.70;79.30;;;;;;5169312;27;20037;-89
2021/06/22 09:11:23;;;;;;;13.60;7.00;;;13.80;79.70;;;;;;5181466;27;20011;-90
2021/06/22 09:14:10;;;;;;;12.20;7.12;;;13.80;79.80;;;;;;5181088;27;20022;-92
2021/06/22 09:17:06;;;;;;;17.48;6.62;;;13.90;80.00;;;;;;5183915;27;20076;-93
2021/06/22 09:20:07;;;;;;;14.38;6.80;;;13.90;80.10;;;;;;5182122;27;20047;-93
2021/06/22 09:31:29;;;;;;;;;;;;;;;;;;;;;
2021/06/22 09:34:39;;;;;;;10.52;7.30;;;13.90;80.50;;;;;;5200780;27;20057;-94
2021/06/22 09:37:23;;;;;;;12.88;7.97;;;14.00;80.70;;;;;;5181544;27;20026;-90
2021/06/22 09:40:43;;;;;;;16.85;8.30;;;14.00;81.10;;;;;;5180950;27;20046;-91
2021/06/22 09:44:45;;;;;;;12.57;8.25;;;13.90;81.00;;;;;;5171953;27;20011;-90
2021/06/22 09:55:01;;;;;;;12.23;8.02;;;14.00;81.30;;;;;;5090754;28;20044;-91
2021/06/22 09:57:46;;;;;;;12.15;7.85;;;14.00;81.20;;;;;;5050465;28;20471;-88
2021/06/22 10:00:39;;;;;;;13.50;8.07;;;14.00;81.30;;;;;;5050453;28;20044;-91
2021/06/22 10:03:41;;;;;;;15.73;8.73;;;13.90;81.20;;;;;;5050733;28;20018;-89
2021/06/22 10:06:34;;;;;;;14.40;8.05;;;13.90;81.10;;;;;;5048830;28;20056;-88
2021/06/22 10:09:20;;;;;;;12.32;7.68;;;14.00;81.10;;;;;;5051192;28;20059;-87
2021/06/22 10:12:15;;;;;;;15.73;8.70;;;13.90;81.10;;;;;;5050089;28;20085;-88
2021/06/22 10:15:03;;;;;;;12.95;7.80;;;14.00;81.10;;;;;;5050315;28;20041;-89
2021/06/22 10:17:46;;;;;;;12.70;8.30;;;14.00;81.20;;;;;;5078082;28;20039;-91
2021/06/22 10:20:13;;;;;;;17.15;8.43;;;14.00;80.80;;;;;;5090091;28;20040;-87
2021/06/22 10:22:46;;;;;;;11.77;8.48;;;14.00;80.90;;;;;;5090817;28;20435;-89
2021/06/22 10:25:34;;;;;;;14.98;9.05;;;14.00;81.10;;;;;;5087488;28;20032;-88
2021/06/22 10:28:05;;;;;;;13.80;9.02;;;14.00;81.20;;;;;;5120115;27;20078;-88
2021/06/22 10:30:36;;;;;;;15.90;9.65;;;14.00;81.40;;;;;;5173616;27;20008;-90
2021/06/22 10:33:17;;;;;;;12.15;8.68;;;14.00;81.50;;;;;;5173092;27;20033;-89
2021/06/22 10:35:52;;;;;;;11.27;8.38;;;14.00;81.40;;;;;;5172016;27;20386;-89
2021/06/22 10:38:22;;;;;;;13.62;8.88;;;14.00;81.40;;;;;;5173507;27;20022;-89
2021/06/22 10:40:58;;;;;;;14.27;9.27;;;14.00;81.40;;;;;;5174452;27;20027;-88
2021/06/22 10:43:43;;;;;;;14.73;9.93;;;14.10;81.50;;;;;;5172607;27;20012;-87
2021/06/22 10:46:16;;;;;;;14.10;9.20;;;14.00;81.50;;;;;;5172273;27;20023;-87
2021/06/22 10:48:52;;;;;;;16.20;9.52;;;14.10;81.60;;;;;;5172082;27;20015;-88
2021/06/22 10:51:35;;;;;;;15.02;9.88;;;14.10;81.70;;;;;;5172148;27;20027;-90
2021/06/22 10:54:07;;;;;;;15.30;10.43;;;14.00;81.60;;;;;;5155333;27;20022;-87
2021/06/22 10:56:38;;;;;;;14.00;9.90;;;14.10;81.80;;;;;;5172535;27;20066;-89
2021/06/22 10:59:14;;;;;;;15.30;10.25;;;14.10;81.80;;;;;;5172214;27;20020;-86
2021/06/22 11:01:57;;;;;;;16.08;10.30;;;14.10;81.90;;;;;;5172460;27;20445;-87
2021/06/22 11:04:25;;;;;;;16.35;11.30;;;14.10;81.90;;;;;;5173944;27;20468;-87
2021/06/22 11:07:07;;;;;;;19.83;11.27;;;14.10;82.00;;;;;;5173508;27;20372;-87
2021/06/22 11:09:35;;;;;;;14.45;11.52;;;14.10;82.20;;;;;;5172145;27;20679;-87
2021/06/22 11:12:23;;;;;;;18.77;10.75;;;14.10;82.20;;;;;;5172285;27;20332;-86
2021/06/22 11:15:00;;;;;;;16.45;11.95;;;14.10;82.20;;;;;;5172173;27;20046;-86
2021/06/22 11:17:42;;;;;;;17.08;11.95;;;14.10;82.20;;;;;;5173293;27;20015;-85
2021/06/22 11:20:13;;;;;;;15.77;11.85;;;14.10;82.40;;;;;;5171822;27;20004;-88
2021/06/22 11:22:58;;;;;;;18.48;12.25;;;14.10;82.60;;;;;;5172168;27;20026;-86
2021/06/22 11:25:55;;;;;;;15.23;12.50;;;14.20;82.70;;;;;;5171756;27;20069;-87
2021/06/22 11:28:24;;;;;;;17.70;14.15;;;14.10;82.50;;;;;;5171667;27;20062;-87
2021/06/22 11:30:58;;;;;;;18.62;13.77;;;14.10;82.40;;;;;;5172971;27;20387;-87
2021/06/22 11:33:28;;;;;;;17.65;13.43;;;14.10;82.50;;;;;;5171786;27;20495;-87
2021/06/22 11:36:20;;;;;;;19.42;14.48;;;14.10;82.50;;;;;;5171083;27;20466;-87
2021/06/22 11:39:09;;;;;;;21.75;14.70;;;14.10;82.60;;;;;;5171756;27;20016;-86
2021/06/22 11:41:36;;;;;;;19.48;14.38;;;14.10;82.60;;;;;;5171610;27;20046;-88
2021/06/22 11:44:06;;;;;;;17.50;14.93;;;14.10;82.70;;;;;;5172453;27;20027;-86
2021/06/22 11:46:40;;;;;;;22.62;14.23;;;14.10;82.70;;;;;;5171848;27;20020;-86
2021/06/22 11:49:08;;;;;;;18.85;13.70;;;14.10;82.80;;;;;;5171933;27;20011;-87
2021/06/22 11:51:48;;;;;;;20.15;13.98;;;14.10;82.80;;;;;;5172400;27;20023;-88
2021/06/22 11:54:20;;;;;;;23.90;14.77;;;14.10;82.80;;;;;;5171783;27;20723;-88
2021/06/22 11:56:47;;;;;;;20.23;14.77;;;14.10;82.90;;;;;;5171595;27;20016;-86
2021/06/22 11:59:15;;;;;;;18.83;14.55;;;14.10;83.00;;;;;;5171840;27;20022;-86
2021/06/22 12:01:46;;;;;;;20.92;13.98;;;14.20;83.10;;;;;;5173304;27;20027;-85
2021/06/22 12:04:21;;;;;;;19.45;14.93;;;14.20;83.10;;;;;;5171436;27;20011;-88
2021/06/22 12:06:53;;;;;;;19.33;14.30;;;14.10;83.00;;;;;;5172439;27;20012;-89
2021/06/22 12:09:21;;;;;;;23.00;15.25;;;14.20;83.00;;;;;;5171601;27;20042;-85
2021/06/22 12:11:48;;;;;;;24.42;15.65;;;14.20;83.10;;;;;;5171770;27;20015;-87
2021/06/22 12:14:16;;;;;;;21.42;15.15;;;14.20;83.10;;;;;;5171886;27;20035;-86
2021/06/22 12:16:45;;;;;;;25.80;17.08;;;14.20;83.20;;;;;;5171865;27;20019;-86
2021/06/22 12:19:21;;;;;;;23.75;15.93;;;14.20;83.20;;;;;;5171586;27;20034;-87
2021/06/22 12:21:53;;;;;;;23.50;16.35;;;14.30;83.20;;;;;;5173532;27;20015;-85
2021/06/22 12:24:22;;;;;;;25.55;17.83;;;14.20;83.20;;;;;;5171833;27;20024;-85
2021/06/22 12:27:10;;;;;;;29.08;19.00;;;14.30;83.20;;;;;;5172426;27;20020;-88
2021/06/22 12:29:59;;;;;;;28.45;19.37;;;14.30;83.30;;;;;;5173088;27;20026;-90
2021/06/22 12:32:26;;;;;;;34.15;20.55;;;14.30;83.30;;;;;;5171936;27;20057;-86
2021/06/22 12:34:53;;;;;;;31.90;21.50;;;14.30;83.30;;;;;;5171280;27;20065;-88
2021/06/22 12:37:28;;;;;;;34.47;23.02;;;14.30;83.20;;;;;;5171744;27;20020;-87
2021/06/22 12:39:58;;;;;;;31.58;21.90;;;14.30;83.20;;;;;;5172015;27;20015;-88
2021/06/22 12:42:26;;;;;;;39.90;23.95;;;14.30;83.20;;;;;;5171664;27;20039;-89
2021/06/22 12:45:13;;;;;;;37.30;25.42;;;14.30;83.30;;;;;;5171864;27;20026;-89
2021/06/22 12:47:52;;;;;;;34.13;25.75;;;14.40;83.40;;;;;;5173712;27;20058;-86
2021/06/22 12:50:20;;;;;;;36.80;25.73;;;14.40;83.40;;;;;;5173529;27;20011;-87
2021/06/22 12:52:49;;;;;;;39.65;27.02;;;14.40;83.30;;;;;;5174162;27;20058;-87
2021/06/22 12:55:35;;;;;;;43.40;28.70;;;14.40;83.40;;;;;;5171345;27;20043;-87
2021/06/22 12:58:04;;;;;;;46.37;30.50;;;14.40;83.40;;;;;;5171192;27;20016;-86
2021/06/22 13:00:49;;;;;;;45.53;30.20;;;14.40;83.50;;;;;;5172805;27;20011;-86
2021/06/22 13:03:20;;;;;;;47.45;32.13;;;14.50;83.50;;;;;;5173613;27;20011;-86
2021/06/22 13:05:52;;;;;;;43.03;32.13;;;14.50;83.60;;;;;;5171410;27;20012;-85
2021/06/22 13:08:29;;;;;;;46.00;33.40;;;14.40;83.50;;;;;;5171888;27;20432;-87
2021/06/22 13:10:56;;;;;;;46.85;33.53;;;14.40;83.40;;;;;;5171498;27;20045;-87
2021/06/22 13:13:29;;;;;;;49.90;34.15;;;14.40;83.30;;;;;;5173578;27;20406;-89
2021/06/22 13:16:09;;;;;;;44.42;30.98;;;14.40;83.40;;;;;;5173746;27;20012;-87
2021/06/22 13:19:03;;;;;;;40.50;29.12;;;14.40;83.40;;;;;;5174688;27;20437;-87
2021/06/22 13:21:46;;;;;;;34.58;27.70;;;14.40;83.30;;;;;;5172517;27;20062;-86
2021/06/22 13:24:30;;;;;;;37.88;26.48;;;14.40;83.20;;;;;;5173710;27;20136;-89
2021/06/22 13:27:02;;;;;;;37.38;26.52;;;14.40;83.20;;;;;;5172575;27;20096;-86
2021/06/22 13:29:48;;;;;;;39.70;28.27;;;14.40;83.00;;;;;;5172739;27;20070;-86
2021/06/22 13:32:32;;;;;;;40.67;28.58;;;14.40;83.10;;;;;;5172183;27;20011;-86
2021/06/22 13:35:01;;;;;;;35.75;27.62;;;14.40;83.10;;;;;;5173343;27;20057;-86
2021/06/22 13:37:29;;;;;;;37.58;29.35;;;14.50;83.20;;;;;;5175816;27;20442;-86
2021/06/22 13:40:04;;;;;;;34.45;27.90;;;14.50;83.20;;;;;;5174081;27;20031;-86
2021/06/22 13:42:32;;;;;;;34.30;27.58;;;14.50;83.20;;;;;;5173912;27;20030;-87
2021/06/22 13:45:13;;;;;;;35.67;29.25;;;14.50;83.20;;;;;;5173886;27;20454;-87
2021/06/22 13:47:44;;;;;;;37.22;28.55;;;14.50;83.20;;;;;;5173914;27;20419;-86
2021/06/22 13:50:24;;;;;;;36.75;26.48;;;14.50;83.10;;;;;;5173641;27;20348;-86
2021/06/22 13:52:54;;;;;;;35.47;26.87;;;14.40;83.00;;;;;;5175192;27;20011;-86
2021/06/22 13:55:38;;;;;;;33.33;26.12;;;14.40;82.70;;;;;;5207209;27;20007;-87
2021/06/22 13:58:06;;;;;;;28.73;25.60;;;14.40;82.70;;;;;;5237412;27;20025;-87
2021/06/22 14:00:35;;;;;;;33.38;25.77;;;14.30;82.60;;;;;;5221463;27;20053;-86
2021/06/22 14:03:04;;;;;;;38.20;27.05;;;14.20;82.60;;;;;;5219198;27;20049;-86
2021/06/22 14:05:33;;;;;;;31.17;26.77;;;14.20;82.60;;;;;;5219343;27;20029;-87
2021/06/22 14:08:03;;;;;;;35.70;29.37;;;14.20;82.60;;;;;;5249805;27;20423;-87
2021/06/22 14:10:31;;;;;;;39.20;29.55;;;14.20;82.80;;;;;;5307404;27;20320;-86
2021/06/22 14:13:00;;;;;;;39.50;32.00;;;14.20;83.00;;;;;;5307555;27;20052;-86
2021/06/22 14:15:28;;;;;;;41.72;32.50;;;14.20;83.10;;;;;;5308304;27;20031;-86
2021/06/22 14:17:56;;;;;;;45.78;33.63;;;14.20;83.20;;;;;;5308331;27;20009;-86
2021/06/22 14:20:27;;;;;;;47.62;33.08;;;14.20;83.30;;;;;;5308861;27;20317;-87
2021/06/22 14:22:54;;;;;;;40.15;31.58;;;14.20;83.40;;;;;;5308510;27;20025;-86
2021/06/22 14:25:22;;;;;;;45.05;31.60;;;14.20;83.40;;;;;;5309511;27;20009;-85
2021/06/22 14:27:50;;;;;;;43.90;29.80;;;14.20;83.50;;;;;;5307559;27;20025;-86
2021/06/22 14:30:18;;;;;;;42.62;32.60;;;14.30;83.60;;;;;;5307412;27;20040;-86
2021/06/22 14:32:48;;;;;;;43.63;32.25;;;14.30;83.60;;;;;;5307567;27;20033;-86
2021/06/22 14:35:17;;;;;;;47.70;32.10;;;14.30;83.70;;;;;;5307102;27;20017;-87
2021/06/22 14:37:46;;;;;;;46.37;30.37;;;14.30;83.70;;;;;;5307685;27;20021;-87
2021/06/22 14:40:17;;;;;;;41.83;30.12;;;14.30;83.80;;;;;;5306795;27;20434;-86
2021/06/22 14:42:45;;;;;;;50.97;31.75;;;14.30;83.90;;;;;;5308383;27;20036;-87
2021/06/22 14:45:14;;;;;;;44.72;32.03;;;14.20;83.90;;;;;;5307949;27;20019;-87
2021/06/22 14:47:41;;;;;;;45.72;30.05;;;14.30;83.90;;;;;;5309424;27;20021;-86
2021/06/22 14:50:11;;;;;;;45.80;32.65;;;14.30;83.90;;;;;;5306752;27;20013;-85
2021/06/22 14:52:38;;;;;;;44.58;32.97;;;14.30;84.00;;;;;;5307203;27;20023;-87
2021/06/22 14:55:27;;;;;;;50.20;33.92;;;14.30;84.00;;;;;;5306689;27;20035;-86
2021/06/22 14:57:56;;;;;;;47.67;34.35;;;14.30;84.00;;;;;;5308731;27;20009;-86
2021/06/22 15:00:45;;;;;;;47.70;36.63;;;14.30;83.90;;;;;;5309603;27;20377;-85
2021/06/22 15:03:13;;;;;;;56.83;35.75;;;14.30;83.80;;;;;;5306968;27;20009;-87
2021/06/22 15:05:44;;;;;;;48.50;35.83;;;14.30;83.80;;;;;;5306966;27;20354;-89
2021/06/22 15:08:13;;;;;;;54.65;35.50;;;14.30;83.80;;;;;;5306922;27;20024;-88
2021/06/22 15:10:42;;;;;;;56.63;35.75;;;14.30;83.80;;;;;;5307310;27;20035;-87
2021/06/22 15:13:10;;;;;;;49.88;35.78;;;14.30;83.80;;;;;;5307041;27;20010;-87
2021/06/22 15:15:38;;;;;;;45.75;33.95;;;14.30;83.90;;;;;;5307846;27;20478;-87
2021/06/22 15:18:05;;;;;;;52.90;35.40;;;14.40;83.90;;;;;;5307608;27;20013;-87
2021/06/22 15:20:35;;;;;;;52.10;35.65;;;14.30;83.80;;;;;;5306984;27;20001;-88
2021/06/22 15:23:04;;;;;;;46.65;34.63;;;14.40;83.80;;;;;;5308056;27;20071;-86
2021/06/22 15:25:32;;;;;;;45.88;32.90;;;14.40;83.80;;;;;;5307634;27;20009;-86
2021/06/22 15:27:59;;;;;;;44.25;33.92;;;14.40;83.80;;;;;;5306778;27;20058;-86
2021/06/22 15:30:26;;;;;;;44.92;35.08;;;14.40;83.80;;;;;;5306733;27;20021;-86